Time;durP1;ratioP1;P1;durP2;ratioP2;P2;SDS_P1;SDS_P2;PMS_P1;PMS_P2;Temp;Humidity;BMP_temperature;BMP_pressure;BME280_temperature;BME280_humidity;BME280_pressure;Samples;Min_cycle;Max_cycle;Signal;HPM_P1;HPM_P2
2023/11/17 00:01:52;;;;;;;;;5.00;5.00;;;;;;;;5052303;28;10869;-79
2023/11/17 00:04:19;;;;;;;;;8.00;5.75;;;;;;;;5043295;28;10686;-78
2023/11/17 00:06:48;;;;;;;;;3.75;3.25;;;;;;;;5056986;28;10780;-79
2023/11/17 00:09:16;;;;;;;;;7.00;5.00;;;;;;;;5057735;28;10903;-78
2023/11/17 00:11:46;;;;;;;;;4.00;4.00;;;;;;;;5057786;28;10775;-77
2023/11/17 00:14:16;;;;;;;;;6.00;6.00;;;;;;;;5051446;28;10679;-77
2023/11/17 00:16:44;;;;;;;;;6.00;6.00;;;;;;;;5053739;28;10718;-77
2023/11/17 00:19:13;;;;;;;;;8.25;8.25;;;;;;;;5052440;28;10672;-76
2023/11/17 00:21:44;;;;;;;;;8.00;8.00;;;;;;;;5047724;28;10887;-77
2023/11/17 00:24:13;;;;;;;;;10.00;9.00;;;;;;;;5051470;28;11755;-79
2023/11/17 00:26:40;;;;;;;;;11.50;9.00;;;;;;;;5052272;28;11841;-78
2023/11/17 00:29:09;;;;;;;;;9.25;7.50;;;;;;;;5050129;28;10970;-79
2023/11/17 00:31:36;;;;;;;;;10.00;8.25;;;;;;;;5052003;28;10879;-78
2023/11/17 00:34:04;;;;;;;;;9.75;9.75;;;;;;;;5044866;28;11049;-78
2023/11/17 00:36:31;;;;;;;;;8.25;7.50;;;;;;;;5050045;28;10980;-78
2023/11/17 00:39:02;;;;;;;;;10.50;10.50;;;;;;;;5045236;28;11035;-79
2023/11/17 00:41:32;;;;;;;;;13.00;10.00;;;;;;;;5041520;28;10973;-78
2023/11/17 00:43:59;;;;;;;;;7.50;7.50;;;;;;;;5045366;28;11091;-78
2023/11/17 00:46:26;;;;;;;;;12.75;12.75;;;;;;;;5044152;28;11092;-79
2023/11/17 00:48:53;;;;;;;;;12.50;12.50;;;;;;;;5049783;28;11171;-79
2023/11/17 00:51:21;;;;;;;;;14.00;14.00;;;;;;;;5051043;28;11012;-77
2023/11/17 00:53:48;;;;;;;;;19.25;15.00;;;;;;;;5053866;28;11268;-77
2023/11/17 00:56:17;;;;;;;;;13.50;13.00;;;;;;;;5063093;28;11139;-79
2023/11/17 00:58:46;;;;;;;;;16.50;14.75;;;;;;;;5060034;28;11201;-78
2023/11/17 01:01:14;;;;;;;;;14.50;14.50;;;;;;;;5044103;28;10984;-80
2023/11/17 01:03:42;;;;;;;;;20.50;15.00;;;;;;;;5050443;28;11109;-77
2023/11/17 01:06:09;;;;;;;;;14.25;14.00;;;;;;;;5050383;28;11125;-79
2023/11/17 01:08:36;;;;;;;;;17.00;15.25;;;;;;;;5043570;28;11080;-79
2023/11/17 01:11:04;;;;;;;;;19.50;18.00;;;;;;;;5050242;28;11124;-78
2023/11/17 01:13:31;;;;;;;;;11.50;10.50;;;;;;;;5050400;28;11162;-78
2023/11/17 01:16:00;;;;;;;;;11.75;9.75;;;;;;;;5050802;28;10889;-78
2023/11/17 01:18:27;;;;;;;;;12.00;12.00;;;;;;;;5051908;28;11067;-79
2023/11/17 01:20:54;;;;;;;;;13.75;11.00;;;;;;;;5052416;28;11020;-78
2023/11/17 01:23:25;;;;;;;;;21.00;19.50;;;;;;;;5051290;28;11046;-78
2023/11/17 01:25:52;;;;;;;;;20.00;18.50;;;;;;;;5052170;28;11042;-77
2023/11/17 01:28:19;;;;;;;;;19.00;17.25;;;;;;;;5053494;28;11030;-76
2023/11/17 01:30:49;;;;;;;;;16.75;15.75;;;;;;;;5049636;28;10867;-78
2023/11/17 01:33:18;;;;;;;;;18.25;18.25;;;;;;;;5049109;28;11092;-78
2023/11/17 01:35:46;;;;;;;;;19.50;18.50;;;;;;;;5049299;28;11845;-78
2023/11/17 01:38:13;;;;;;;;;16.75;16.25;;;;;;;;5042991;28;11175;-78
2023/11/17 01:40:40;;;;;;;;;17.50;17.50;;;;;;;;5047766;28;11320;-78
2023/11/17 01:43:11;;;;;;;;;19.00;17.00;;;;;;;;5049085;28;11954;-78
2023/11/17 01:45:39;;;;;;;;;22.25;22.25;;;;;;;;5048847;28;11132;-78
2023/11/17 01:48:08;;;;;;;;;13.25;13.00;;;;;;;;5049761;28;11755;-78
2023/11/17 01:50:37;;;;;;;;;25.50;20.75;;;;;;;;5049490;28;11105;-78
2023/11/17 01:53:07;;;;;;;;;21.75;19.75;;;;;;;;5048332;28;11830;-78
2023/11/17 01:55:34;;;;;;;;;23.00;21.00;;;;;;;;5048035;28;11112;-77
2023/11/17 01:58:04;;;;;;;;;22.50;20.25;;;;;;;;5051251;28;11130;-78
2023/11/17 02:00:31;;;;;;;;;31.25;25.25;;;;;;;;5048066;28;11100;-78
2023/11/17 02:03:01;;;;;;;;;23.00;23.00;;;;;;;;5045393;28;11214;-77
2023/11/17 02:05:28;;;;;;;;;22.25;21.75;;;;;;;;5042864;28;11208;-77
2023/11/17 02:08:12;;;;;;;;;26.50;23.75;;;;;;;;5044054;28;10998;-78
2023/11/17 02:10:47;;;;;;;;;25.50;22.50;;;;;;;;5042933;28;11140;-78
2023/11/17 02:13:24;;;;;;;;;23.50;23.50;;;;;;;;5045605;28;12051;-80
2023/11/17 02:15:54;;;;;;;;;21.25;19.00;;;;;;;;5043114;28;12476;-78
2023/11/17 02:18:23;;;;;;;;;24.00;19.25;;;;;;;;5046245;28;11938;-78
2023/11/17 02:20:52;;;;;;;;;22.75;20.75;;;;;;;;5051921;28;10974;-76
2023/11/17 02:23:24;;;;;;;;;19.50;17.50;;;;;;;;5051001;28;11055;-78
2023/11/17 02:26:00;;;;;;;;;25.75;21.50;;;;;;;;5048923;28;11034;-78
2023/11/17 02:28:36;;;;;;;;;20.25;18.75;;;;;;;;5048094;28;10958;-78
2023/11/17 02:31:15;;;;;;;;;13.50;13.50;;;;;;;;5041233;28;10924;-78
2023/11/17 02:33:45;;;;;;;;;18.25;16.25;;;;;;;;5043526;28;11034;-76
2023/11/17 02:36:18;;;;;;;;;22.25;20.00;;;;;;;;5048174;28;10938;-77
2023/11/17 02:38:56;;;;;;;;;14.50;14.50;;;;;;;;5047712;28;11204;-78
2023/11/17 02:41:32;;;;;;;;;15.00;13.00;;;;;;;;5047397;28;10997;-76
2023/11/17 02:43:59;;;;;;;;;16.75;16.75;;;;;;;;5041929;28;10983;-76
2023/11/17 02:46:32;;;;;;;;;12.50;12.50;;;;;;;;5047924;28;11006;-76
2023/11/17 02:49:00;;;;;;;;;17.00;15.25;;;;;;;;5048003;28;10902;-78
2023/11/17 02:51:33;;;;;;;;;17.75;16.00;;;;;;;;5047201;28;10965;-78
2023/11/17 02:54:02;;;;;;;;;13.25;13.25;;;;;;;;5043024;28;10981;-77
2023/11/17 02:56:30;;;;;;;;;15.50;13.75;;;;;;;;5046663;28;10963;-78
2023/11/17 02:58:58;;;;;;;;;11.75;11.75;;;;;;;;5046515;28;11059;-77
2023/11/17 03:01:25;;;;;;;;;15.75;14.25;;;;;;;;5046403;28;10776;-77
2023/11/17 03:03:55;;;;;;;;;16.50;15.00;;;;;;;;5048084;28;11759;-79
2023/11/17 03:06:23;;;;;;;;;13.75;10.50;;;;;;;;5050208;28;11343;-77
2023/11/17 03:08:50;;;;;;;;;11.75;11.75;;;;;;;;5052337;28;10849;-76
2023/11/17 03:11:21;;;;;;;;;10.75;10.75;;;;;;;;5050032;28;10879;-77
2023/11/17 03:13:50;;;;;;;;;11.00;10.00;;;;;;;;5052007;28;10842;-77
2023/11/17 03:16:23;;;;;;;;;11.25;11.25;;;;;;;;5051945;28;10879;-78
2023/11/17 03:18:53;;;;;;;;;11.50;9.25;;;;;;;;5041853;28;10857;-78
2023/11/17 03:21:23;;;;;;;;;14.00;11.00;;;;;;;;5051329;28;10874;-78
2023/11/17 03:23:51;;;;;;;;;11.00;11.00;;;;;;;;5051928;28;10967;-77
2023/11/17 03:26:21;;;;;;;;;14.00;9.75;;;;;;;;5052386;28;10772;-77
2023/11/17 03:28:49;;;;;;;;;11.25;9.50;;;;;;;;5055436;28;10943;-77
2023/11/17 03:31:16;;;;;;;;;8.00;8.00;;;;;;;;5060705;28;10879;-74
2023/11/17 03:33:44;;;;;;;;;10.25;8.75;;;;;;;;5061025;28;10851;-79
2023/11/17 03:36:18;;;;;;;;;7.00;7.00;;;;;;;;5052250;28;11655;-78
2023/11/17 03:38:46;;;;;;;;;9.25;9.00;;;;;;;;5052174;28;10908;-78
2023/11/17 03:41:18;;;;;;;;;11.75;11.25;;;;;;;;5052104;28;10828;-76
2023/11/17 03:43:45;;;;;;;;;13.75;13.75;;;;;;;;5052367;28;10961;-77
2023/11/17 03:46:13;;;;;;;;;16.50;13.25;;;;;;;;5051935;28;10786;-77
2023/11/17 03:48:41;;;;;;;;;9.25;9.25;;;;;;;;5054074;28;10894;-76
2023/11/17 03:51:08;;;;;;;;;10.00;10.00;;;;;;;;5054178;28;10791;-77
2023/11/17 03:53:37;;;;;;;;;13.75;13.75;;;;;;;;5048648;28;10852;-75
2023/11/17 03:56:05;;;;;;;;;8.50;8.50;;;;;;;;5042012;28;10896;-78
2023/11/17 03:58:34;;;;;;;;;10.50;9.00;;;;;;;;5054965;28;10882;-77
2023/11/17 04:01:01;;;;;;;;;14.25;11.00;;;;;;;;5044126;28;10792;-78
2023/11/17 04:03:29;;;;;;;;;13.75;13.75;;;;;;;;5049233;28;10965;-77
2023/11/17 04:05:58;;;;;;;;;12.75;12.75;;;;;;;;5047853;28;10797;-78
2023/11/17 04:08:26;;;;;;;;;11.25;11.25;;;;;;;;5052900;28;10891;-78
2023/11/17 04:10:55;;;;;;;;;12.25;12.25;;;;;;;;5053349;28;10868;-78
2023/11/17 04:13:25;;;;;;;;;9.75;9.75;;;;;;;;5053870;28;10929;-78
2023/11/17 04:15:52;;;;;;;;;12.75;10.00;;;;;;;;5051047;28;10808;-78
2023/11/17 04:18:20;;;;;;;;;8.50;8.00;;;;;;;;5049585;28;10891;-78
2023/11/17 04:20:48;;;;;;;;;12.25;12.25;;;;;;;;5050252;28;10715;-79
2023/11/17 04:23:15;;;;;;;;;9.25;9.25;;;;;;;;5050333;28;10868;-78
2023/11/17 04:25:42;;;;;;;;;8.00;8.00;;;;;;;;5049602;28;10913;-79
2023/11/17 04:28:11;;;;;;;;;9.25;9.25;;;;;;;;5050195;28;11114;-78
2023/11/17 04:30:38;;;;;;;;;5.25;5.25;;;;;;;;5049362;28;10645;-78
2023/11/17 04:33:05;;;;;;;;;9.25;7.00;;;;;;;;5050016;28;10697;-78
2023/11/17 04:35:33;;;;;;;;;8.00;6.25;;;;;;;;5049662;28;10846;-77
2023/11/17 04:38:00;;;;;;;;;7.00;7.00;;;;;;;;5050191;28;10632;-77
2023/11/17 04:40:31;;;;;;;;;7.00;7.00;;;;;;;;5047621;28;10535;-79
2023/11/17 04:42:59;;;;;;;;;8.75;8.75;;;;;;;;5050506;28;10601;-78
2023/11/17 04:45:35;;;;;;;;;10.00;8.25;;;;;;;;5049804;28;10615;-76
2023/11/17 04:48:05;;;;;;;;;4.00;4.00;;;;;;;;5048880;28;10646;-78
2023/11/17 04:50:32;;;;;;;;;13.00;7.00;;;;;;;;5049414;28;10477;-78
2023/11/17 04:53:02;;;;;;;;;7.00;6.50;;;;;;;;5048682;28;10622;-77
2023/11/17 04:55:32;;;;;;;;;7.50;7.25;;;;;;;;5051206;28;10581;-76
2023/11/17 04:57:59;;;;;;;;;4.00;4.00;;;;;;;;5048608;28;11337;-77
2023/11/17 05:00:31;;;;;;;;;4.25;4.00;;;;;;;;5050209;28;10501;-76
2023/11/17 05:03:02;;;;;;;;;7.75;7.75;;;;;;;;5052630;28;10681;-79
2023/11/17 05:05:30;;;;;;;;;4.00;2.00;;;;;;;;5054970;28;10451;-80
2023/11/17 05:08:09;;;;;;;;;4.75;4.75;;;;;;;;5049406;28;10421;-79
2023/11/17 05:10:36;;;;;;;;;4.00;4.00;;;;;;;;5049754;28;10610;-79
2023/11/17 05:13:05;;;;;;;;;2.00;2.00;;;;;;;;5049038;28;10603;-79
2023/11/17 05:15:34;;;;;;;;;5.25;4.25;;;;;;;;5048548;28;10470;-77
2023/11/17 05:18:01;;;;;;;;;6.50;6.50;;;;;;;;5046243;28;10486;-77
2023/11/17 05:20:31;;;;;;;;;6.75;4.00;;;;;;;;5048666;28;10498;-78
2023/11/17 05:23:00;;;;;;;;;3.00;3.00;;;;;;;;5049463;28;10456;-78
2023/11/17 05:25:28;;;;;;;;;5.00;5.00;;;;;;;;5044770;28;10387;-77
2023/11/17 05:27:55;;;;;;;;;5.75;4.00;;;;;;;;5048887;28;10530;-78
2023/11/17 05:30:23;;;;;;;;;4.00;4.00;;;;;;;;5048752;28;10316;-79
2023/11/17 05:32:52;;;;;;;;;4.25;4.00;;;;;;;;5050168;28;10342;-80
2023/11/17 05:35:30;;;;;;;;;8.00;5.25;;;;;;;;5048263;28;10252;-77
2023/11/17 05:37:57;;;;;;;;;4.00;4.00;;;;;;;;5045861;28;10295;-80
2023/11/17 05:40:24;;;;;;;;;11.25;9.50;;;;;;;;5048462;28;10300;-78
2023/11/17 05:42:52;;;;;;;;;6.50;3.00;;;;;;;;5050002;28;10309;-79
2023/11/17 05:45:20;;;;;;;;;5.00;5.00;;;;;;;;5047813;28;10330;-78
2023/11/17 05:47:50;;;;;;;;;4.75;4.75;;;;;;;;5050521;28;10468;-76
2023/11/17 05:50:19;;;;;;;;;4.00;4.00;;;;;;;;5049001;28;10462;-80
2023/11/17 05:52:46;;;;;;;;;7.00;5.00;;;;;;;;5053886;28;10516;-77
2023/11/17 05:55:16;;;;;;;;;7.75;6.75;;;;;;;;5053549;28;10480;-80
2023/11/17 05:57:44;;;;;;;;;4.00;4.00;;;;;;;;5064668;28;10532;-77
2023/11/17 06:00:18;;;;;;;;;5.50;5.50;;;;;;;;5058411;28;10423;-82
2023/11/17 06:02:46;;;;;;;;;9.00;5.50;;;;;;;;5051862;28;10539;-78
2023/11/17 06:05:14;;;;;;;;;4.25;3.00;;;;;;;;5049341;28;10508;-78
2023/11/17 06:07:43;;;;;;;;;4.75;4.75;;;;;;;;5048215;28;10484;-79
2023/11/17 06:10:11;;;;;;;;;7.25;4.00;;;;;;;;5048679;28;10599;-79
2023/11/17 06:12:38;;;;;;;;;8.75;7.00;;;;;;;;5046360;28;10479;-81
2023/11/17 06:15:06;;;;;;;;;4.00;4.00;;;;;;;;5047804;28;10453;-81
2023/11/17 06:17:38;;;;;;;;;8.00;6.00;;;;;;;;5046933;28;10413;-81
2023/11/17 06:20:10;;;;;;;;;4.50;4.50;;;;;;;;5047905;28;10468;-80
2023/11/17 06:22:37;;;;;;;;;4.25;4.25;;;;;;;;5047729;28;10552;-82
2023/11/17 06:25:08;;;;;;;;;4.00;4.00;;;;;;;;5046469;28;10413;-80
2023/11/17 06:27:37;;;;;;;;;1.75;1.75;;;;;;;;5049116;28;10410;-78
2023/11/17 06:30:06;;;;;;;;;5.75;3.75;;;;;;;;5051071;28;10307;-80
2023/11/17 06:32:33;;;;;;;;;5.50;3.00;;;;;;;;5049022;28;10328;-80
2023/11/17 06:35:01;;;;;;;;;5.50;4.00;;;;;;;;5046561;28;10311;-80
2023/11/17 06:37:29;;;;;;;;;7.00;7.00;;;;;;;;5046018;28;11220;-80
2023/11/17 06:39:56;;;;;;;;;8.25;8.25;;;;;;;;5048108;28;10326;-79
2023/11/17 06:42:25;;;;;;;;;7.00;7.00;;;;;;;;5048290;28;10451;-80
2023/11/17 06:44:52;;;;;;;;;2.75;2.75;;;;;;;;5047389;28;10572;-80
2023/11/17 06:47:23;;;;;;;;;8.00;7.00;;;;;;;;5047649;28;10336;-80
2023/11/17 06:49:53;;;;;;;;;5.00;5.00;;;;;;;;5047657;28;10399;-79
2023/11/17 06:52:24;;;;;;;;;6.00;6.00;;;;;;;;5048179;28;10486;-79
2023/11/17 06:54:53;;;;;;;;;5.00;5.00;;;;;;;;5047451;28;10336;-79
2023/11/17 06:57:20;;;;;;;;;8.00;7.25;;;;;;;;5047516;28;10508;-79
2023/11/17 06:59:51;;;;;;;;;4.50;4.50;;;;;;;;5047001;28;11312;-78
2023/11/17 07:02:24;;;;;;;;;6.75;6.75;;;;;;;;5047602;28;10452;-78
2023/11/17 07:04:53;;;;;;;;;4.25;4.25;;;;;;;;5047931;28;10475;-79
2023/11/17 07:07:24;;;;;;;;;7.25;7.25;;;;;;;;5047392;28;10379;-77
2023/11/17 07:09:51;;;;;;;;;5.00;5.00;;;;;;;;5048047;28;10721;-78
2023/11/17 07:12:19;;;;;;;;;12.25;9.00;;;;;;;;5047862;28;10534;-77
2023/11/17 07:14:48;;;;;;;;;5.25;5.25;;;;;;;;5049124;28;10487;-77
2023/11/17 07:17:19;;;;;;;;;10.00;8.00;;;;;;;;5048109;28;10444;-76
2023/11/17 07:19:46;;;;;;;;;8.00;5.50;;;;;;;;5048691;28;10477;-77
2023/11/17 07:22:13;;;;;;;;;5.00;5.00;;;;;;;;5048427;28;11342;-77
2023/11/17 07:24:41;;;;;;;;;4.75;4.00;;;;;;;;5050737;28;10628;-77
2023/11/17 07:27:13;;;;;;;;;4.75;4.75;;;;;;;;5051081;28;10384;-77
2023/11/17 07:29:41;;;;;;;;;5.00;5.00;;;;;;;;5051830;28;10491;-76
2023/11/17 07:32:09;;;;;;;;;3.75;3.75;;;;;;;;5051056;28;10354;-78
2023/11/17 07:34:37;;;;;;;;;6.50;6.50;;;;;;;;5052805;28;10519;-76
2023/11/17 07:37:05;;;;;;;;;5.00;5.00;;;;;;;;5051998;28;10269;-76
2023/11/17 07:39:32;;;;;;;;;9.25;7.75;;;;;;;;5051830;28;10341;-78
2023/11/17 07:42:00;;;;;;;;;9.75;6.00;;;;;;;;5048337;28;10394;-77
2023/11/17 07:44:27;;;;;;;;;8.50;8.50;;;;;;;;5046928;28;10451;-76
2023/11/17 07:46:56;;;;;;;;;9.00;6.25;;;;;;;;5047709;28;10814;-76
2023/11/17 07:49:25;;;;;;;;;8.00;8.00;;;;;;;;5047807;28;10543;-77
2023/11/17 07:51:53;;;;;;;;;7.00;7.00;;;;;;;;5046734;28;10547;-77
2023/11/17 07:54:22;;;;;;;;;4.25;4.25;;;;;;;;5050851;28;10573;-77
2023/11/17 07:56:50;;;;;;;;;8.75;5.00;;;;;;;;5050120;28;10455;-76
2023/11/17 07:59:18;;;;;;;;;4.75;4.75;;;;;;;;5050541;28;10447;-77
2023/11/17 08:01:49;;;;;;;;;6.50;4.00;;;;;;;;5048172;28;10352;-76
2023/11/17 08:04:16;;;;;;;;;9.00;7.50;;;;;;;;5050169;28;10387;-76
2023/11/17 08:06:45;;;;;;;;;4.75;4.25;;;;;;;;5046524;28;10398;-78
2023/11/17 08:09:12;;;;;;;;;7.75;5.00;;;;;;;;5050040;28;10357;-77
2023/11/17 08:11:40;;;;;;;;;7.50;5.00;;;;;;;;5049740;28;10317;-78
2023/11/17 08:14:08;;;;;;;;;5.00;5.00;;;;;;;;5049492;28;10348;-78
2023/11/17 08:16:35;;;;;;;;;5.00;5.00;;;;;;;;5049916;28;10392;-79
2023/11/17 08:19:03;;;;;;;;;5.75;5.25;;;;;;;;5049779;28;11094;-78
2023/11/17 08:21:33;;;;;;;;;6.50;6.00;;;;;;;;5049992;28;10438;-78
2023/11/17 08:24:02;;;;;;;;;5.75;5.50;;;;;;;;5049856;28;10524;-78
2023/11/17 08:26:32;;;;;;;;;10.25;8.50;;;;;;;;5041809;28;10475;-79
2023/11/17 08:28:59;;;;;;;;;8.50;5.50;;;;;;;;5051184;28;10620;-78
2023/11/17 08:31:26;;;;;;;;;5.50;4.00;;;;;;;;5054902;28;10499;-76
2023/11/17 08:33:54;;;;;;;;;6.50;6.50;;;;;;;;5064817;28;10552;-79
2023/11/17 08:36:24;;;;;;;;;7.00;5.00;;;;;;;;5052328;28;11401;-78
2023/11/17 08:38:53;;;;;;;;;6.00;6.00;;;;;;;;5050002;28;10665;-81
2023/11/17 08:41:23;;;;;;;;;4.00;4.00;;;;;;;;5049596;28;10720;-79
2023/11/17 08:43:51;;;;;;;;;9.25;6.00;;;;;;;;5049867;28;10539;-80
2023/11/17 08:46:23;;;;;;;;;6.00;6.00;;;;;;;;5050162;28;10550;-79
2023/11/17 08:48:52;;;;;;;;;7.00;7.00;;;;;;;;5049769;28;10615;-79
2023/11/17 08:51:20;;;;;;;;;3.50;3.50;;;;;;;;5049573;28;10626;-79
2023/11/17 08:53:50;;;;;;;;;9.75;6.00;;;;;;;;5049776;28;11303;-77
2023/11/17 08:56:18;;;;;;;;;7.50;5.25;;;;;;;;5049816;28;10677;-77
2023/11/17 08:58:46;;;;;;;;;6.75;4.50;;;;;;;;5050200;28;10457;-76
2023/11/17 09:01:14;;;;;;;;;4.50;4.00;;;;;;;;5049019;28;10417;-77
2023/11/17 09:03:42;;;;;;;;;6.00;6.00;;;;;;;;5051450;28;10468;-80
2023/11/17 09:06:14;;;;;;;;;4.00;4.00;;;;;;;;5052905;28;10544;-78
2023/11/17 09:08:41;;;;;;;;;4.00;4.00;;;;;;;;5050516;28;10267;-79
2023/11/17 09:11:08;;;;;;;;;4.25;4.25;;;;;;;;5050218;28;10285;-80
2023/11/17 09:13:36;;;;;;;;;4.00;4.00;;;;;;;;5052354;28;10248;-79
2023/11/17 09:16:07;;;;;;;;;3.75;3.75;;;;;;;;5051544;28;10236;-78
2023/11/17 09:18:35;;;;;;;;;4.00;4.00;;;;;;;;5048998;28;9956;-79
2023/11/17 09:21:05;;;;;;;;;4.00;4.00;;;;;;;;5045507;28;10030;-79
2023/11/17 09:23:34;;;;;;;;;5.25;3.25;;;;;;;;5054367;28;9846;-80
2023/11/17 09:26:02;;;;;;;;;3.00;3.00;;;;;;;;5053545;28;9852;-79
2023/11/17 09:28:30;;;;;;;;;5.00;5.00;;;;;;;;5040338;28;9676;-80
2023/11/17 09:30:57;;;;;;;;;3.00;3.00;;;;;;;;5040312;28;9750;-80
2023/11/17 09:33:27;;;;;;;;;3.00;3.00;;;;;;;;5049214;28;10465;-79
2023/11/17 09:36:00;;;;;;;;;3.00;3.00;;;;;;;;5051956;28;9591;-77
2023/11/17 09:38:27;;;;;;;;;2.50;2.00;;;;;;;;5050053;28;9618;-79
2023/11/17 09:40:55;;;;;;;;;4.00;3.00;;;;;;;;5049039;28;9562;-80
2023/11/17 09:43:23;;;;;;;;;2.50;2.50;;;;;;;;5048156;28;9533;-79
2023/11/17 09:45:52;;;;;;;;;1.50;1.50;;;;;;;;5048381;28;9644;-77
2023/11/17 09:48:21;;;;;;;;;0.00;0.00;;;;;;;;5046433;28;9537;-77
2023/11/17 09:50:50;;;;;;;;;0.00;0.00;;;;;;;;5048940;28;9294;-79
2023/11/17 09:53:18;;;;;;;;;3.25;3.25;;;;;;;;5048758;28;9581;-77
2023/11/17 09:55:48;;;;;;;;;5.00;5.00;;;;;;;;5047118;28;9752;-78
2023/11/17 09:58:15;;;;;;;;;7.75;7.75;;;;;;;;5047192;28;9620;-79
2023/11/17 10:00:45;;;;;;;;;11.25;11.25;;;;;;;;5045788;28;9608;-78
2023/11/17 10:03:13;;;;;;;;;2.75;2.75;;;;;;;;5046658;28;9620;-79
2023/11/17 10:05:41;;;;;;;;;1.75;1.75;;;;;;;;5048160;28;9484;-78
2023/11/17 10:08:12;;;;;;;;;0.67;0.00;;;;;;;;5047558;28;9535;-79
2023/11/17 10:10:42;;;;;;;;;0.00;0.00;;;;;;;;5047864;28;9908;-79
2023/11/17 10:13:12;;;;;;;;;0.00;0.00;;;;;;;;5036843;28;9404;-78
2023/11/17 10:15:41;;;;;;;;;0.00;0.00;;;;;;;;5046592;28;8867;-79
2023/11/17 10:18:12;;;;;;;;;0.00;0.00;;;;;;;;5048123;28;9003;-79
2023/11/17 10:20:39;;;;;;;;;1.00;0.00;;;;;;;;5047818;28;9015;-80
2023/11/17 10:23:08;;;;;;;;;1.00;0.00;;;;;;;;5047805;28;8969;-79
2023/11/17 10:25:38;;;;;;;;;1.00;0.00;;;;;;;;5048029;28;9003;-79
2023/11/17 10:28:07;;;;;;;;;0.00;0.00;;;;;;;;5047797;28;8970;-80
2023/11/17 10:30:37;;;;;;;;;0.00;0.00;;;;;;;;5047017;28;8779;-79
2023/11/17 10:33:13;;;;;;;;;0.67;0.67;;;;;;;;5047767;28;9654;-78
2023/11/17 10:35:43;;;;;;;;;0.00;0.00;;;;;;;;5047775;28;9054;-80
2023/11/17 10:38:19;;;;;;;;;0.25;0.00;;;;;;;;5047589;28;8835;-80
2023/11/17 10:40:52;;;;;;;;;0.25;0.25;;;;;;;;5037675;28;8862;-79
2023/11/17 10:43:19;;;;;;;;;0.00;0.00;;;;;;;;5047753;28;8839;-76
2023/11/17 10:45:47;;;;;;;;;0.00;0.00;;;;;;;;5048155;28;8847;-81
2023/11/17 10:48:16;;;;;;;;;0.50;0.50;;;;;;;;5047100;28;8859;-78
2023/11/17 10:50:44;;;;;;;;;1.00;1.00;;;;;;;;5048017;28;8882;-78
2023/11/17 10:53:20;;;;;;;;;1.75;0.50;;;;;;;;5047820;28;8890;-79
2023/11/17 10:55:49;;;;;;;;;0.25;0.25;;;;;;;;5049048;28;8870;-80
2023/11/17 10:58:16;;;;;;;;;1.00;0.25;;;;;;;;5047340;28;8846;-80
2023/11/17 11:00:45;;;;;;;;;1.00;1.00;;;;;;;;5051780;28;8783;-79
2023/11/17 11:03:14;;;;;;;;;1.50;0.25;;;;;;;;5052492;28;8990;-78
2023/11/17 11:05:42;;;;;;;;;1.00;1.00;;;;;;;;5053468;28;8873;-78
2023/11/17 11:08:17;;;;;;;;;1.00;1.00;;;;;;;;5053562;28;8850;-80
2023/11/17 11:10:57;;;;;;;;;4.75;1.00;;;;;;;;5055048;28;8952;-78
2023/11/17 11:13:36;;;;;;;;;1.00;1.00;;;;;;;;5048825;28;8867;-80
2023/11/17 11:16:10;;;;;;;;;1.00;1.00;;;;;;;;5057902;28;8859;-80
2023/11/17 11:18:45;;;;;;;;;1.00;1.00;;;;;;;;5043358;28;8889;-80
2023/11/17 11:21:16;;;;;;;;;3.00;1.00;;;;;;;;5050152;28;9719;-79
2023/11/17 11:23:46;;;;;;;;;1.25;1.25;;;;;;;;5050871;28;8925;-79
2023/11/17 11:26:17;;;;;;;;;2.00;1.00;;;;;;;;5048925;28;8851;-79
2023/11/17 11:28:45;;;;;;;;;1.00;1.00;;;;;;;;5051685;28;9745;-78
2023/11/17 11:31:12;;;;;;;;;1.75;1.75;;;;;;;;5043712;28;8803;-79
2023/11/17 11:33:40;;;;;;;;;0.75;0.75;;;;;;;;5046350;28;8847;-78
2023/11/17 11:36:10;;;;;;;;;2.75;2.00;;;;;;;;5046415;28;8870;-80
2023/11/17 11:38:38;;;;;;;;;1.00;1.00;;;;;;;;5050826;28;8843;-80
2023/11/17 11:41:11;;;;;;;;;2.00;2.00;;;;;;;;5053207;28;8895;-79
2023/11/17 11:43:40;;;;;;;;;0.75;0.75;;;;;;;;5051869;28;8855;-81
2023/11/17 11:46:10;;;;;;;;;0.25;0.25;;;;;;;;5041781;28;8855;-81
2023/11/17 11:48:38;;;;;;;;;1.00;1.00;;;;;;;;5049284;28;8989;-81
2023/11/17 11:51:08;;;;;;;;;0.00;0.00;;;;;;;;5050727;28;8871;-78
2023/11/17 11:53:45;;;;;;;;;0.00;0.00;;;;;;;;5050620;28;8897;-85
2023/11/17 11:56:18;;;;;;;;;2.25;1.00;;;;;;;;5036131;28;9009;-79
2023/11/17 11:58:48;;;;;;;;;1.00;1.00;;;;;;;;5041804;28;8873;-79
2023/11/17 12:01:19;;;;;;;;;0.00;0.00;;;;;;;;5049909;28;9687;-78
2023/11/17 12:03:50;;;;;;;;;1.25;0.75;;;;;;;;5051194;28;8898;-79
2023/11/17 12:06:24;;;;;;;;;0.00;0.00;;;;;;;;5051245;28;8866;-77
2023/11/17 12:08:57;;;;;;;;;0.00;0.00;;;;;;;;5053358;28;8870;-77
2023/11/17 12:11:31;;;;;;;;;0.25;0.25;;;;;;;;5053911;28;8973;-81
2023/11/17 12:14:04;;;;;;;;;0.00;0.00;;;;;;;;5052729;28;9009;-79
2023/11/17 12:16:41;;;;;;;;;0.00;0.00;;;;;;;;5050880;28;8851;-80
2023/11/17 12:19:09;;;;;;;;;2.50;1.00;;;;;;;;5050012;28;8898;-79
2023/11/17 12:21:38;;;;;;;;;0.00;0.00;;;;;;;;5051295;28;8870;-83
2023/11/17 12:24:11;;;;;;;;;0.00;0.00;;;;;;;;5043849;28;8827;-81
2023/11/17 12:26:38;;;;;;;;;1.00;1.00;;;;;;;;5039959;28;8988;-80
2023/11/17 12:29:11;;;;;;;;;0.25;0.25;;;;;;;;5047856;28;8851;-80
2023/11/17 12:31:39;;;;;;;;;0.50;0.50;;;;;;;;5050277;28;8815;-78
2023/11/17 12:34:11;;;;;;;;;2.00;1.00;;;;;;;;5051139;28;8835;-85
2023/11/17 12:36:39;;;;;;;;;0.50;0.50;;;;;;;;5050823;28;8859;-84
2023/11/17 12:39:06;;;;;;;;;0.00;0.00;;;;;;;;5047484;28;9574;-82
2023/11/17 12:41:37;;;;;;;;;0.25;0.25;;;;;;;;5051298;28;8875;-81
2023/11/17 12:44:06;;;;;;;;;0.00;0.00;;;;;;;;5043051;28;8858;-78
2023/11/17 12:46:35;;;;;;;;;0.50;0.50;;;;;;;;5053058;28;8832;-84
2023/11/17 12:49:06;;;;;;;;;0.00;0.00;;;;;;;;5054415;28;8904;-81
2023/11/17 12:51:33;;;;;;;;;3.75;1.00;;;;;;;;5057389;28;8965;-82
2023/11/17 12:54:02;;;;;;;;;1.00;1.00;;;;;;;;5054587;28;8855;-81
2023/11/17 12:56:34;;;;;;;;;2.00;0.50;;;;;;;;5049952;28;8870;-84
2023/11/17 13:02:16;;;;;;;;;0.00;0.00;;;;;;;;5044322;28;8818;-80
2023/11/17 13:04:44;;;;;;;;;0.00;0.00;;;;;;;;5049130;28;8862;-80
2023/11/17 13:07:15;;;;;;;;;2.00;1.00;;;;;;;;5050971;28;8869;-78
2023/11/17 13:09:42;;;;;;;;;0.75;0.75;;;;;;;;5052782;28;8878;-78
2023/11/17 13:12:10;;;;;;;;;1.00;1.00;;;;;;;;5046233;28;8881;-78
2023/11/17 13:14:37;;;;;;;;;0.25;0.25;;;;;;;;5046692;28;8826;-82
2023/11/17 13:17:04;;;;;;;;;0.75;0.75;;;;;;;;5047702;28;8925;-81
2023/11/17 13:19:34;;;;;;;;;2.00;0.75;;;;;;;;5045554;28;8847;-80
2023/11/17 13:22:01;;;;;;;;;0.25;0.25;;;;;;;;5048166;28;8850;-78
2023/11/17 13:24:31;;;;;;;;;1.00;1.00;;;;;;;;5048686;28;8898;-79
2023/11/17 13:26:58;;;;;;;;;1.50;1.50;;;;;;;;5047801;28;8902;-79
2023/11/17 13:29:29;;;;;;;;;1.00;1.00;;;;;;;;5049895;28;8912;-80
2023/11/17 13:35:20;;;;;;;;;2.00;0.00;;;;;;;;5060215;28;8941;-77
2023/11/17 13:37:49;;;;;;;;;1.00;1.00;;;;;;;;5044673;28;8937;-80
2023/11/17 13:40:32;;;;;;;;;1.25;1.25;;;;;;;;5049158;28;8973;-78
2023/11/17 13:43:00;;;;;;;;;0.50;0.50;;;;;;;;5047312;28;9609;-79
2023/11/17 13:45:33;;;;;;;;;0.00;0.00;;;;;;;;5046130;28;8829;-79
2023/11/17 13:48:00;;;;;;;;;1.00;1.00;;;;;;;;5048631;28;9602;-79
2023/11/17 13:50:29;;;;;;;;;0.75;0.75;;;;;;;;5047875;28;9633;-79
2023/11/17 13:52:59;;;;;;;;;0.50;0.50;;;;;;;;5048208;28;8924;-80
2023/11/17 13:55:27;;;;;;;;;0.25;0.25;;;;;;;;5050671;28;8847;-80
2023/11/17 13:57:56;;;;;;;;;0.00;0.00;;;;;;;;5047525;28;8978;-78
2023/11/17 14:00:24;;;;;;;;;0.50;0.50;;;;;;;;5049047;28;8870;-79
2023/11/17 14:02:51;;;;;;;;;0.00;0.00;;;;;;;;5048497;28;8874;-79
2023/11/17 14:05:22;;;;;;;;;0.75;0.75;;;;;;;;5039109;28;8970;-80
2023/11/17 14:07:51;;;;;;;;;1.00;1.00;;;;;;;;5043604;28;9686;-78
2023/11/17 14:10:19;;;;;;;;;0.00;0.00;;;;;;;;5040575;28;8879;-78
2023/11/17 14:12:50;;;;;;;;;0.25;0.25;;;;;;;;5037719;28;8855;-80
2023/11/17 14:15:19;;;;;;;;;0.50;0.50;;;;;;;;5048429;28;8874;-78
2023/11/17 14:17:47;;;;;;;;;2.00;0.75;;;;;;;;5047297;28;8855;-78
2023/11/17 14:20:15;;;;;;;;;0.25;0.25;;;;;;;;5035650;28;8891;-77
2023/11/17 14:22:43;;;;;;;;;0.75;0.75;;;;;;;;5032645;28;8862;-80
2023/11/17 14:25:14;;;;;;;;;2.00;2.00;;;;;;;;5034958;28;8881;-79
2023/11/17 14:27:42;;;;;;;;;1.50;1.00;;;;;;;;5044589;28;8954;-80
2023/11/17 14:30:18;;;;;;;;;2.00;0.75;;;;;;;;5045044;28;8839;-79
2023/11/17 14:32:45;;;;;;;;;0.75;0.75;;;;;;;;5048121;28;8863;-79
2023/11/17 14:35:17;;;;;;;;;1.00;1.00;;;;;;;;5047837;28;8916;-79
2023/11/17 14:37:44;;;;;;;;;0.75;0.00;;;;;;;;5039811;28;8851;-78
2023/11/17 14:40:18;;;;;;;;;2.00;0.75;;;;;;;;5049125;28;8876;-78
2023/11/17 14:42:45;;;;;;;;;13.75;10.75;;;;;;;;5034826;28;8984;-78
2023/11/17 14:45:14;;;;;;;;;6.50;3.75;;;;;;;;5048600;28;8855;-79
2023/11/17 14:47:43;;;;;;;;;2.00;1.00;;;;;;;;5049653;28;8905;-79
2023/11/17 14:50:13;;;;;;;;;0.50;0.50;;;;;;;;5046438;28;8883;-78
2023/11/17 14:52:40;;;;;;;;;0.75;0.75;;;;;;;;5047729;28;8847;-79
2023/11/17 14:55:09;;;;;;;;;1.00;1.00;;;;;;;;5048078;28;8869;-78
2023/11/17 14:57:40;;;;;;;;;0.00;0.00;;;;;;;;5048655;28;8870;-78
2023/11/17 15:00:16;;;;;;;;;0.00;0.00;;;;;;;;5048356;28;8855;-82